sensor_id;sensor_type;location;lat;lon;timestamp;P1;durP1;ratioP1;P2;durP2;ratioP2
11510;SDS011;5812;48.864;9.190;2022-12-10T00:01:05;17.47;;;17.37;;
11510;SDS011;5812;48.864;9.190;2022-12-10T00:03:35;16.27;;;16.17;;
11510;SDS011;5812;48.864;9.190;2022-12-10T00:06:02;16.43;;;16.33;;
11510;SDS011;5812;48.864;9.190;2022-12-10T00:08:29;17.30;;;17.20;;
11510;SDS011;5812;48.864;9.190;2022-12-10T00:10:55;16.83;;;16.73;;
11510;SDS011;5812;48.864;9.190;2022-12-10T00:13:20;16.77;;;16.67;;
11510;SDS011;5812;48.864;9.190;2022-12-10T00:15:46;16.53;;;16.43;;
11510;SDS011;5812;48.864;9.190;2022-12-10T00:18:11;16.40;;;16.30;;
11510;SDS011;5812;48.864;9.190;2022-12-10T00:20:37;17.37;;;17.27;;
11510;SDS011;5812;48.864;9.190;2022-12-10T00:23:03;18.47;;;18.37;;
11510;SDS011;5812;48.864;9.190;2022-12-10T00:25:28;17.90;;;17.80;;
11510;SDS011;5812;48.864;9.190;2022-12-10T00:27:54;17.57;;;17.47;;
11510;SDS011;5812;48.864;9.190;2022-12-10T00:30:20;17.83;;;17.73;;
11510;SDS011;5812;48.864;9.190;2022-12-10T00:32:45;16.40;;;16.30;;
11510;SDS011;5812;48.864;9.190;2022-12-10T00:35:11;16.70;;;16.60;;
11510;SDS011;5812;48.864;9.190;2022-12-10T00:37:37;16.47;;;16.37;;
11510;SDS011;5812;48.864;9.190;2022-12-10T00:40:02;17.10;;;17.00;;
11510;SDS011;5812;48.864;9.190;2022-12-10T00:42:29;18.10;;;18.00;;
11510;SDS011;5812;48.864;9.190;2022-12-10T00:44:55;17.00;;;16.90;;
11510;SDS011;5812;48.864;9.190;2022-12-10T00:47:20;17.23;;;17.13;;
11510;SDS011;5812;48.864;9.190;2022-12-10T00:49:46;15.93;;;15.83;;
11510;SDS011;5812;48.864;9.190;2022-12-10T00:52:12;17.37;;;17.27;;
11510;SDS011;5812;48.864;9.190;2022-12-10T00:54:37;17.17;;;17.07;;
11510;SDS011;5812;48.864;9.190;2022-12-10T00:57:03;16.40;;;16.30;;
11510;SDS011;5812;48.864;9.190;2022-12-10T00:59:28;16.87;;;16.77;;
11510;SDS011;5812;48.864;9.190;2022-12-10T01:01:54;16.03;;;15.93;;
11510;SDS011;5812;48.864;9.190;2022-12-10T01:04:19;16.03;;;15.93;;
11510;SDS011;5812;48.864;9.190;2022-12-10T01:06:46;16.87;;;16.77;;
11510;SDS011;5812;48.864;9.190;2022-12-10T01:09:14;16.50;;;16.40;;
11510;SDS011;5812;48.864;9.190;2022-12-10T01:11:48;16.97;;;16.87;;
11510;SDS011;5812;48.864;9.190;2022-12-10T01:14:16;16.53;;;16.43;;
11510;SDS011;5812;48.864;9.190;2022-12-10T01:16:44;16.27;;;16.17;;
11510;SDS011;5812;48.864;9.190;2022-12-10T01:19:10;16.60;;;16.50;;
11510;SDS011;5812;48.864;9.190;2022-12-10T01:21:36;15.83;;;15.73;;
11510;SDS011;5812;48.864;9.190;2022-12-10T01:24:02;17.50;;;17.40;;
11510;SDS011;5812;48.864;9.190;2022-12-10T01:26:29;16.47;;;16.37;;
11510;SDS011;5812;48.864;9.190;2022-12-10T01:28:57;18.03;;;17.93;;
11510;SDS011;5812;48.864;9.190;2022-12-10T01:31:27;16.90;;;16.80;;
11510;SDS011;5812;48.864;9.190;2022-12-10T01:33:58;17.33;;;17.23;;
11510;SDS011;5812;48.864;9.190;2022-12-10T01:36:28;16.83;;;16.73;;
11510;SDS011;5812;48.864;9.190;2022-12-10T01:38:58;16.53;;;16.43;;
11510;SDS011;5812;48.864;9.190;2022-12-10T01:41:25;18.33;;;18.23;;
11510;SDS011;5812;48.864;9.190;2022-12-10T01:46:34;17.20;;;17.10;;
11510;SDS011;5812;48.864;9.190;2022-12-10T01:49:02;17.70;;;17.60;;
11510;SDS011;5812;48.864;9.190;2022-12-10T01:51:31;16.10;;;16.00;;
11510;SDS011;5812;48.864;9.190;2022-12-10T01:54:00;17.90;;;17.80;;
11510;SDS011;5812;48.864;9.190;2022-12-10T01:56:26;15.40;;;15.30;;
11510;SDS011;5812;48.864;9.190;2022-12-10T01:58:54;17.73;;;17.63;;
11510;SDS011;5812;48.864;9.190;2022-12-10T02:01:24;15.73;;;15.63;;
11510;SDS011;5812;48.864;9.190;2022-12-10T02:06:59;15.47;;;15.37;;
11510;SDS011;5812;48.864;9.190;2022-12-10T02:17:33;16.90;;;16.80;;
11510;SDS011;5812;48.864;9.190;2022-12-10T02:23:06;16.77;;;16.67;;
11510;SDS011;5812;48.864;9.190;2022-12-10T02:31:18;16.17;;;16.07;;
11510;SDS011;5812;48.864;9.190;2022-12-10T02:33:49;16.20;;;16.10;;
11510;SDS011;5812;48.864;9.190;2022-12-10T02:36:18;16.60;;;16.50;;
11510;SDS011;5812;48.864;9.190;2022-12-10T02:38:45;17.70;;;17.60;;
11510;SDS011;5812;48.864;9.190;2022-12-10T02:41:15;17.77;;;17.67;;
11510;SDS011;5812;48.864;9.190;2022-12-10T02:43:47;16.73;;;16.63;;
11510;SDS011;5812;48.864;9.190;2022-12-10T02:46:17;15.60;;;15.50;;
11510;SDS011;5812;48.864;9.190;2022-12-10T02:48:43;17.43;;;17.33;;
11510;SDS011;5812;48.864;9.190;2022-12-10T02:51:11;16.57;;;16.47;;
11510;SDS011;5812;48.864;9.190;2022-12-10T02:53:43;17.23;;;17.13;;
11510;SDS011;5812;48.864;9.190;2022-12-10T02:58:50;17.57;;;17.47;;
11510;SDS011;5812;48.864;9.190;2022-12-10T03:04:37;17.20;;;17.10;;
11510;SDS011;5812;48.864;9.190;2022-12-10T03:07:16;16.30;;;16.20;;
11510;SDS011;5812;48.864;9.190;2022-12-10T03:09:48;16.57;;;16.47;;
11510;SDS011;5812;48.864;9.190;2022-12-10T03:12:28;16.23;;;16.13;;
11510;SDS011;5812;48.864;9.190;2022-12-10T03:14:58;16.37;;;16.27;;
11510;SDS011;5812;48.864;9.190;2022-12-10T03:17:27;16.00;;;15.90;;
11510;SDS011;5812;48.864;9.190;2022-12-10T03:19:56;16.70;;;16.60;;
11510;SDS011;5812;48.864;9.190;2022-12-10T03:22:24;16.83;;;16.73;;
11510;SDS011;5812;48.864;9.190;2022-12-10T03:24:49;17.23;;;17.13;;
11510;SDS011;5812;48.864;9.190;2022-12-10T03:27:16;16.60;;;16.50;;
11510;SDS011;5812;48.864;9.190;2022-12-10T03:29:45;16.63;;;16.53;;
11510;SDS011;5812;48.864;9.190;2022-12-10T03:32:13;19.33;;;19.23;;
11510;SDS011;5812;48.864;9.190;2022-12-10T03:34:40;17.23;;;17.13;;
11510;SDS011;5812;48.864;9.190;2022-12-10T03:37:08;16.83;;;16.73;;
11510;SDS011;5812;48.864;9.190;2022-12-10T03:39:34;17.30;;;17.20;;
11510;SDS011;5812;48.864;9.190;2022-12-10T03:42:00;17.63;;;17.53;;
11510;SDS011;5812;48.864;9.190;2022-12-10T03:44:29;17.50;;;17.40;;
11510;SDS011;5812;48.864;9.190;2022-12-10T03:46:56;18.00;;;17.90;;
11510;SDS011;5812;48.864;9.190;2022-12-10T03:49:22;17.97;;;17.87;;
11510;SDS011;5812;48.864;9.190;2022-12-10T03:51:47;18.10;;;18.00;;
11510;SDS011;5812;48.864;9.190;2022-12-10T03:54:13;18.73;;;18.63;;
11510;SDS011;5812;48.864;9.190;2022-12-10T03:56:39;17.20;;;17.10;;
11510;SDS011;5812;48.864;9.190;2022-12-10T03:59:04;18.43;;;18.33;;
11510;SDS011;5812;48.864;9.190;2022-12-10T04:01:30;18.27;;;18.17;;
11510;SDS011;5812;48.864;9.190;2022-12-10T04:03:55;18.33;;;18.23;;
11510;SDS011;5812;48.864;9.190;2022-12-10T04:06:21;18.10;;;18.00;;
11510;SDS011;5812;48.864;9.190;2022-12-10T04:08:47;18.70;;;18.60;;
11510;SDS011;5812;48.864;9.190;2022-12-10T04:11:13;19.17;;;19.07;;
11510;SDS011;5812;48.864;9.190;2022-12-10T04:13:39;19.17;;;19.07;;
11510;SDS011;5812;48.864;9.190;2022-12-10T04:16:24;18.23;;;18.13;;
11510;SDS011;5812;48.864;9.190;2022-12-10T04:21:24;19.90;;;19.80;;
11510;SDS011;5812;48.864;9.190;2022-12-10T04:24:09;19.13;;;19.03;;
11510;SDS011;5812;48.864;9.190;2022-12-10T04:26:55;19.93;;;19.83;;
11510;SDS011;5812;48.864;9.190;2022-12-10T04:29:22;18.97;;;18.87;;
11510;SDS011;5812;48.864;9.190;2022-12-10T04:31:50;20.20;;;20.10;;
11510;SDS011;5812;48.864;9.190;2022-12-10T04:34:16;18.73;;;18.63;;
11510;SDS011;5812;48.864;9.190;2022-12-10T04:36:42;19.30;;;19.20;;
11510;SDS011;5812;48.864;9.190;2022-12-10T04:39:08;18.53;;;18.43;;
11510;SDS011;5812;48.864;9.190;2022-12-10T04:41:36;19.57;;;19.47;;
11510;SDS011;5812;48.864;9.190;2022-12-10T04:44:04;20.00;;;19.90;;
11510;SDS011;5812;48.864;9.190;2022-12-10T04:46:29;20.00;;;19.90;;
11510;SDS011;5812;48.864;9.190;2022-12-10T04:48:55;18.87;;;18.77;;
11510;SDS011;5812;48.864;9.190;2022-12-10T04:51:20;19.67;;;19.57;;
11510;SDS011;5812;48.864;9.190;2022-12-10T04:53:46;19.63;;;19.53;;
11510;SDS011;5812;48.864;9.190;2022-12-10T04:56:11;20.43;;;20.33;;
11510;SDS011;5812;48.864;9.190;2022-12-10T04:58:37;20.37;;;20.27;;
11510;SDS011;5812;48.864;9.190;2022-12-10T05:01:03;19.37;;;19.27;;
11510;SDS011;5812;48.864;9.190;2022-12-10T05:03:30;21.13;;;21.03;;
11510;SDS011;5812;48.864;9.190;2022-12-10T05:05:59;18.80;;;18.70;;
11510;SDS011;5812;48.864;9.190;2022-12-10T05:08:35;20.60;;;20.50;;
11510;SDS011;5812;48.864;9.190;2022-12-10T05:11:06;19.83;;;19.73;;
11510;SDS011;5812;48.864;9.190;2022-12-10T05:13:34;20.67;;;20.57;;
11510;SDS011;5812;48.864;9.190;2022-12-10T05:16:03;20.63;;;20.53;;
11510;SDS011;5812;48.864;9.190;2022-12-10T05:18:30;21.53;;;21.43;;
11510;SDS011;5812;48.864;9.190;2022-12-10T05:20:59;20.80;;;20.70;;
11510;SDS011;5812;48.864;9.190;2022-12-10T05:23:26;20.57;;;20.47;;
11510;SDS011;5812;48.864;9.190;2022-12-10T05:26:02;21.10;;;21.00;;
11510;SDS011;5812;48.864;9.190;2022-12-10T05:28:28;20.27;;;20.17;;
11510;SDS011;5812;48.864;9.190;2022-12-10T05:30:55;19.53;;;19.33;;
11510;SDS011;5812;48.864;9.190;2022-12-10T05:33:21;19.37;;;19.27;;
11510;SDS011;5812;48.864;9.190;2022-12-10T05:35:53;22.17;;;22.07;;
11510;SDS011;5812;48.864;9.190;2022-12-10T05:38:20;19.93;;;19.83;;
11510;SDS011;5812;48.864;9.190;2022-12-10T05:40:46;19.10;;;19.00;;
11510;SDS011;5812;48.864;9.190;2022-12-10T05:43:12;20.93;;;20.83;;
11510;SDS011;5812;48.864;9.190;2022-12-10T05:45:37;21.13;;;21.03;;
11510;SDS011;5812;48.864;9.190;2022-12-10T05:48:03;21.50;;;21.40;;
11510;SDS011;5812;48.864;9.190;2022-12-10T05:50:30;20.07;;;19.97;;
11510;SDS011;5812;48.864;9.190;2022-12-10T05:52:56;22.10;;;22.00;;
11510;SDS011;5812;48.864;9.190;2022-12-10T05:55:22;21.00;;;20.90;;
11510;SDS011;5812;48.864;9.190;2022-12-10T05:57:47;20.30;;;20.20;;
11510;SDS011;5812;48.864;9.190;2022-12-10T06:00:13;20.90;;;20.80;;
11510;SDS011;5812;48.864;9.190;2022-12-10T06:02:39;21.13;;;21.03;;
11510;SDS011;5812;48.864;9.190;2022-12-10T06:05:05;22.33;;;22.23;;
11510;SDS011;5812;48.864;9.190;2022-12-10T06:07:31;20.83;;;20.73;;
11510;SDS011;5812;48.864;9.190;2022-12-10T06:09:56;20.63;;;20.53;;
11510;SDS011;5812;48.864;9.190;2022-12-10T06:12:22;20.63;;;20.53;;
11510;SDS011;5812;48.864;9.190;2022-12-10T06:14:47;19.87;;;19.77;;
11510;SDS011;5812;48.864;9.190;2022-12-10T06:17:13;20.80;;;20.70;;
11510;SDS011;5812;48.864;9.190;2022-12-10T06:19:39;20.77;;;20.67;;
11510;SDS011;5812;48.864;9.190;2022-12-10T06:22:04;21.93;;;21.80;;
11510;SDS011;5812;48.864;9.190;2022-12-10T06:24:30;19.17;;;19.07;;
11510;SDS011;5812;48.864;9.190;2022-12-10T06:26:55;20.23;;;20.13;;
11510;SDS011;5812;48.864;9.190;2022-12-10T06:29:21;20.20;;;20.10;;
11510;SDS011;5812;48.864;9.190;2022-12-10T06:31:46;18.63;;;18.53;;
11510;SDS011;5812;48.864;9.190;2022-12-10T06:34:12;20.43;;;20.33;;
11510;SDS011;5812;48.864;9.190;2022-12-10T06:36:37;18.67;;;18.57;;
11510;SDS011;5812;48.864;9.190;2022-12-10T06:39:03;19.90;;;19.80;;
11510;SDS011;5812;48.864;9.190;2022-12-10T06:41:29;20.33;;;20.23;;
11510;SDS011;5812;48.864;9.190;2022-12-10T06:43:54;19.83;;;19.73;;
11510;SDS011;5812;48.864;9.190;2022-12-10T06:46:23;20.27;;;20.17;;
11510;SDS011;5812;48.864;9.190;2022-12-10T06:48:50;18.27;;;18.17;;
11510;SDS011;5812;48.864;9.190;2022-12-10T06:51:16;19.53;;;19.43;;
11510;SDS011;5812;48.864;9.190;2022-12-10T06:53:43;18.87;;;18.77;;
11510;SDS011;5812;48.864;9.190;2022-12-10T06:56:14;19.00;;;18.90;;
11510;SDS011;5812;48.864;9.190;2022-12-10T06:58:41;18.80;;;18.70;;
11510;SDS011;5812;48.864;9.190;2022-12-10T07:03:56;18.67;;;18.57;;
11510;SDS011;5812;48.864;9.190;2022-12-10T07:06:22;20.43;;;20.33;;
11510;SDS011;5812;48.864;9.190;2022-12-10T07:08:49;19.57;;;19.47;;
11510;SDS011;5812;48.864;9.190;2022-12-10T07:11:16;19.37;;;19.27;;
11510;SDS011;5812;48.864;9.190;2022-12-10T07:13:44;18.60;;;18.50;;
11510;SDS011;5812;48.864;9.190;2022-12-10T07:16:19;18.17;;;18.07;;
11510;SDS011;5812;48.864;9.190;2022-12-10T07:18:50;18.47;;;18.37;;
11510;SDS011;5812;48.864;9.190;2022-12-10T07:21:26;18.80;;;18.70;;
11510;SDS011;5812;48.864;9.190;2022-12-10T07:23:54;19.07;;;18.97;;
11510;SDS011;5812;48.864;9.190;2022-12-10T07:26:23;18.87;;;18.77;;
11510;SDS011;5812;48.864;9.190;2022-12-10T07:28:49;19.47;;;19.37;;
11510;SDS011;5812;48.864;9.190;2022-12-10T07:31:15;18.40;;;18.30;;
11510;SDS011;5812;48.864;9.190;2022-12-10T07:33:41;20.40;;;20.30;;
11510;SDS011;5812;48.864;9.190;2022-12-10T07:36:08;20.23;;;20.13;;
11510;SDS011;5812;48.864;9.190;2022-12-10T07:38:37;19.07;;;18.97;;
11510;SDS011;5812;48.864;9.190;2022-12-10T07:41:06;18.17;;;18.07;;
11510;SDS011;5812;48.864;9.190;2022-12-10T07:43:34;19.83;;;19.73;;
11510;SDS011;5812;48.864;9.190;2022-12-10T07:46:11;19.43;;;19.33;;
11510;SDS011;5812;48.864;9.190;2022-12-10T07:48:39;19.73;;;19.63;;
11510;SDS011;5812;48.864;9.190;2022-12-10T07:51:05;18.93;;;18.83;;
11510;SDS011;5812;48.864;9.190;2022-12-10T07:53:32;20.27;;;20.17;;
11510;SDS011;5812;48.864;9.190;2022-12-10T07:55:58;19.57;;;19.47;;
11510;SDS011;5812;48.864;9.190;2022-12-10T07:58:23;19.27;;;19.17;;
11510;SDS011;5812;48.864;9.190;2022-12-10T08:00:49;19.37;;;19.27;;
11510;SDS011;5812;48.864;9.190;2022-12-10T08:03:14;20.33;;;20.23;;
11510;SDS011;5812;48.864;9.190;2022-12-10T08:05:40;20.03;;;19.93;;
11510;SDS011;5812;48.864;9.190;2022-12-10T08:08:05;21.77;;;21.67;;
11510;SDS011;5812;48.864;9.190;2022-12-10T08:10:34;19.63;;;19.53;;
11510;SDS011;5812;48.864;9.190;2022-12-10T08:13:01;18.67;;;18.57;;
11510;SDS011;5812;48.864;9.190;2022-12-10T08:15:26;19.73;;;19.63;;
11510;SDS011;5812;48.864;9.190;2022-12-10T08:17:53;20.80;;;20.70;;
11510;SDS011;5812;48.864;9.190;2022-12-10T08:20:19;21.03;;;20.93;;
11510;SDS011;5812;48.864;9.190;2022-12-10T08:22:44;20.67;;;20.57;;
11510;SDS011;5812;48.864;9.190;2022-12-10T08:25:10;21.10;;;21.00;;
11510;SDS011;5812;48.864;9.190;2022-12-10T08:27:36;21.87;;;21.67;;
11510;SDS011;5812;48.864;9.190;2022-12-10T08:30:01;21.27;;;21.17;;
11510;SDS011;5812;48.864;9.190;2022-12-10T08:32:28;20.40;;;20.30;;
11510;SDS011;5812;48.864;9.190;2022-12-10T08:34:54;19.03;;;18.93;;
11510;SDS011;5812;48.864;9.190;2022-12-10T08:37:20;20.10;;;20.00;;
11510;SDS011;5812;48.864;9.190;2022-12-10T08:39:45;19.33;;;19.23;;
11510;SDS011;5812;48.864;9.190;2022-12-10T08:42:11;21.03;;;20.93;;
11510;SDS011;5812;48.864;9.190;2022-12-10T08:44:37;20.70;;;20.60;;
11510;SDS011;5812;48.864;9.190;2022-12-10T08:47:02;19.60;;;19.50;;
11510;SDS011;5812;48.864;9.190;2022-12-10T08:49:28;19.03;;;18.93;;
11510;SDS011;5812;48.864;9.190;2022-12-10T08:51:54;20.20;;;20.10;;
11510;SDS011;5812;48.864;9.190;2022-12-10T08:54:19;18.70;;;18.60;;
11510;SDS011;5812;48.864;9.190;2022-12-10T08:56:45;17.80;;;17.70;;
11510;SDS011;5812;48.864;9.190;2022-12-10T08:59:10;17.50;;;17.40;;
11510;SDS011;5812;48.864;9.190;2022-12-10T09:01:36;18.90;;;18.80;;
11510;SDS011;5812;48.864;9.190;2022-12-10T09:04:01;17.23;;;17.13;;
11510;SDS011;5812;48.864;9.190;2022-12-10T09:06:27;17.23;;;17.13;;
11510;SDS011;5812;48.864;9.190;2022-12-10T09:08:53;17.03;;;16.93;;
11510;SDS011;5812;48.864;9.190;2022-12-10T09:11:21;17.70;;;17.60;;
11510;SDS011;5812;48.864;9.190;2022-12-10T09:13:47;19.87;;;19.77;;
11510;SDS011;5812;48.864;9.190;2022-12-10T09:16:13;17.27;;;17.17;;
11510;SDS011;5812;48.864;9.190;2022-12-10T09:18:38;17.37;;;17.27;;
11510;SDS011;5812;48.864;9.190;2022-12-10T09:21:07;16.23;;;16.13;;
11510;SDS011;5812;48.864;9.190;2022-12-10T09:23:34;17.30;;;17.20;;
11510;SDS011;5812;48.864;9.190;2022-12-10T09:26:00;18.13;;;18.03;;
11510;SDS011;5812;48.864;9.190;2022-12-10T09:28:26;16.43;;;16.33;;
11510;SDS011;5812;48.864;9.190;2022-12-10T09:30:55;16.77;;;16.67;;
11510;SDS011;5812;48.864;9.190;2022-12-10T09:33:25;16.33;;;16.23;;
11510;SDS011;5812;48.864;9.190;2022-12-10T09:35:51;18.13;;;18.03;;
11510;SDS011;5812;48.864;9.190;2022-12-10T09:38:17;20.83;;;20.73;;
11510;SDS011;5812;48.864;9.190;2022-12-10T09:43:58;16.67;;;16.57;;
11510;SDS011;5812;48.864;9.190;2022-12-10T09:51:45;17.17;;;17.07;;
11510;SDS011;5812;48.864;9.190;2022-12-10T09:54:22;16.10;;;16.00;;
11510;SDS011;5812;48.864;9.190;2022-12-10T09:56:51;15.07;;;14.97;;
11510;SDS011;5812;48.864;9.190;2022-12-10T09:59:23;16.03;;;15.93;;
11510;SDS011;5812;48.864;9.190;2022-12-10T10:04:54;15.90;;;15.80;;
11510;SDS011;5812;48.864;9.190;2022-12-10T10:07:31;16.03;;;15.93;;
11510;SDS011;5812;48.864;9.190;2022-12-10T10:10:04;16.00;;;15.90;;
11510;SDS011;5812;48.864;9.190;2022-12-10T10:12:33;15.20;;;15.10;;
11510;SDS011;5812;48.864;9.190;2022-12-10T10:14:59;16.50;;;16.40;;
11510;SDS011;5812;48.864;9.190;2022-12-10T10:17:39;16.17;;;16.07;;
11510;SDS011;5812;48.864;9.190;2022-12-10T10:20:10;14.87;;;14.77;;
11510;SDS011;5812;48.864;9.190;2022-12-10T10:22:37;16.90;;;16.80;;
11510;SDS011;5812;48.864;9.190;2022-12-10T10:25:04;15.73;;;15.63;;
11510;SDS011;5812;48.864;9.190;2022-12-10T10:27:31;16.70;;;16.60;;
11510;SDS011;5812;48.864;9.190;2022-12-10T10:30:00;15.13;;;15.03;;
11510;SDS011;5812;48.864;9.190;2022-12-10T10:35:05;15.50;;;15.40;;
11510;SDS011;5812;48.864;9.190;2022-12-10T10:40:00;15.93;;;15.83;;
11510;SDS011;5812;48.864;9.190;2022-12-10T10:42:27;14.93;;;14.83;;
11510;SDS011;5812;48.864;9.190;2022-12-10T10:44:54;15.67;;;15.57;;
11510;SDS011;5812;48.864;9.190;2022-12-10T10:50:12;17.17;;;17.07;;
11510;SDS011;5812;48.864;9.190;2022-12-10T10:52:50;16.07;;;15.97;;
11510;SDS011;5812;48.864;9.190;2022-12-10T10:55:31;16.67;;;16.57;;
11510;SDS011;5812;48.864;9.190;2022-12-10T10:58:00;14.53;;;14.43;;
11510;SDS011;5812;48.864;9.190;2022-12-10T11:00:26;14.90;;;14.80;;
11510;SDS011;5812;48.864;9.190;2022-12-10T11:02:52;16.33;;;16.23;;
11510;SDS011;5812;48.864;9.190;2022-12-10T11:05:25;16.00;;;15.90;;
11510;SDS011;5812;48.864;9.190;2022-12-10T11:08:00;15.77;;;15.67;;
11510;SDS011;5812;48.864;9.190;2022-12-10T11:10:28;15.93;;;15.83;;
11510;SDS011;5812;48.864;9.190;2022-12-10T11:12:55;16.00;;;15.90;;
11510;SDS011;5812;48.864;9.190;2022-12-10T11:18:02;14.63;;;14.53;;
11510;SDS011;5812;48.864;9.190;2022-12-10T11:20:45;16.40;;;16.30;;
11510;SDS011;5812;48.864;9.190;2022-12-10T11:23:54;15.53;;;15.43;;
11510;SDS011;5812;48.864;9.190;2022-12-10T11:37:35;16.63;;;16.53;;
11510;SDS011;5812;48.864;9.190;2022-12-10T11:40:19;16.67;;;16.57;;
11510;SDS011;5812;48.864;9.190;2022-12-10T11:54:30;14.47;;;14.37;;
11510;SDS011;5812;48.864;9.190;2022-12-10T11:59:46;13.40;;;13.30;;
11510;SDS011;5812;48.864;9.190;2022-12-10T12:10:48;14.00;;;13.90;;
11510;SDS011;5812;48.864;9.190;2022-12-10T12:13:35;13.30;;;13.20;;
11510;SDS011;5812;48.864;9.190;2022-12-10T12:16:28;11.80;;;11.80;;
11510;SDS011;5812;48.864;9.190;2022-12-10T12:19:00;12.43;;;12.43;;
11510;SDS011;5812;48.864;9.190;2022-12-10T12:21:47;13.10;;;13.10;;
11510;SDS011;5812;48.864;9.190;2022-12-10T12:24:24;12.27;;;12.27;;
11510;SDS011;5812;48.864;9.190;2022-12-10T12:26:55;13.07;;;13.07;;
11510;SDS011;5812;48.864;9.190;2022-12-10T12:29:30;14.70;;;14.60;;
11510;SDS011;5812;48.864;9.190;2022-12-10T12:32:02;13.30;;;13.20;;
11510;SDS011;5812;48.864;9.190;2022-12-10T12:37:09;12.17;;;12.17;;
11510;SDS011;5812;48.864;9.190;2022-12-10T12:39:46;11.90;;;11.90;;
11510;SDS011;5812;48.864;9.190;2022-12-10T12:42:18;13.13;;;13.10;;
11510;SDS011;5812;48.864;9.190;2022-12-10T12:44:59;12.20;;;12.20;;
11510;SDS011;5812;48.864;9.190;2022-12-10T12:53:14;12.40;;;12.40;;
11510;SDS011;5812;48.864;9.190;2022-12-10T12:58:38;11.53;;;11.53;;
11510;SDS011;5812;48.864;9.190;2022-12-10T13:01:23;12.37;;;12.27;;
11510;SDS011;5812;48.864;9.190;2022-12-10T13:04:09;11.97;;;11.87;;
11510;SDS011;5812;48.864;9.190;2022-12-10T13:06:37;12.47;;;12.47;;
11510;SDS011;5812;48.864;9.190;2022-12-10T13:11:40;13.10;;;13.00;;
11510;SDS011;5812;48.864;9.190;2022-12-10T13:46:23;15.20;;;15.10;;
11510;SDS011;5812;48.864;9.190;2022-12-10T13:48:50;15.87;;;15.77;;
11510;SDS011;5812;48.864;9.190;2022-12-10T13:59:29;16.53;;;16.43;;
11510;SDS011;5812;48.864;9.190;2022-12-10T14:07:59;16.37;;;16.27;;
11510;SDS011;5812;48.864;9.190;2022-12-10T14:10:29;17.40;;;17.30;;
11510;SDS011;5812;48.864;9.190;2022-12-10T14:12:58;16.50;;;16.40;;
11510;SDS011;5812;48.864;9.190;2022-12-10T14:15:25;16.53;;;16.43;;
11510;SDS011;5812;48.864;9.190;2022-12-10T14:17:56;17.23;;;17.13;;
11510;SDS011;5812;48.864;9.190;2022-12-10T14:20:26;16.63;;;16.53;;
11510;SDS011;5812;48.864;9.190;2022-12-10T14:22:55;17.00;;;16.90;;
11510;SDS011;5812;48.864;9.190;2022-12-10T14:25:44;16.93;;;16.83;;
11510;SDS011;5812;48.864;9.190;2022-12-10T14:28:15;16.73;;;16.63;;
11510;SDS011;5812;48.864;9.190;2022-12-10T14:30:42;17.40;;;17.30;;
11510;SDS011;5812;48.864;9.190;2022-12-10T14:33:10;16.97;;;16.87;;
11510;SDS011;5812;48.864;9.190;2022-12-10T14:35:40;17.77;;;17.67;;
11510;SDS011;5812;48.864;9.190;2022-12-10T14:38:12;18.03;;;17.93;;
11510;SDS011;5812;48.864;9.190;2022-12-10T14:40:54;17.20;;;17.10;;
11510;SDS011;5812;48.864;9.190;2022-12-10T14:43:21;16.63;;;16.53;;
11510;SDS011;5812;48.864;9.190;2022-12-10T14:46:18;16.73;;;16.63;;
11510;SDS011;5812;48.864;9.190;2022-12-10T14:48:52;15.77;;;15.67;;
11510;SDS011;5812;48.864;9.190;2022-12-10T14:51:20;16.90;;;16.80;;
11510;SDS011;5812;48.864;9.190;2022-12-10T14:53:48;16.93;;;16.83;;
11510;SDS011;5812;48.864;9.190;2022-12-10T14:56:36;17.00;;;16.90;;
11510;SDS011;5812;48.864;9.190;2022-12-10T15:01:42;15.73;;;15.63;;
11510;SDS011;5812;48.864;9.190;2022-12-10T15:04:13;15.53;;;15.43;;
11510;SDS011;5812;48.864;9.190;2022-12-10T15:06:41;17.33;;;17.23;;
11510;SDS011;5812;48.864;9.190;2022-12-10T15:09:22;16.10;;;16.00;;
11510;SDS011;5812;48.864;9.190;2022-12-10T15:11:54;17.33;;;17.23;;
11510;SDS011;5812;48.864;9.190;2022-12-10T15:14:21;16.33;;;16.23;;
11510;SDS011;5812;48.864;9.190;2022-12-10T15:16:48;17.53;;;17.43;;
11510;SDS011;5812;48.864;9.190;2022-12-10T15:19:16;16.93;;;16.83;;
11510;SDS011;5812;48.864;9.190;2022-12-10T15:22:27;18.53;;;18.43;;
11510;SDS011;5812;48.864;9.190;2022-12-10T15:24:47;16.30;;;16.20;;
11510;SDS011;5812;48.864;9.190;2022-12-10T15:27:17;16.90;;;16.80;;
11510;SDS011;5812;48.864;9.190;2022-12-10T15:29:44;16.83;;;16.73;;
11510;SDS011;5812;48.864;9.190;2022-12-10T15:32:12;17.07;;;16.97;;
11510;SDS011;5812;48.864;9.190;2022-12-10T15:34:52;17.00;;;16.90;;
11510;SDS011;5812;48.864;9.190;2022-12-10T15:37:24;18.60;;;18.50;;
11510;SDS011;5812;48.864;9.190;2022-12-10T15:39:59;18.07;;;17.97;;
11510;SDS011;5812;48.864;9.190;2022-12-10T15:42:45;16.93;;;16.83;;
11510;SDS011;5812;48.864;9.190;2022-12-10T15:45:24;18.10;;;18.00;;
11510;SDS011;5812;48.864;9.190;2022-12-10T15:47:52;19.20;;;19.10;;
11510;SDS011;5812;48.864;9.190;2022-12-10T15:50:21;17.13;;;17.03;;
11510;SDS011;5812;48.864;9.190;2022-12-10T15:52:46;17.50;;;17.40;;
11510;SDS011;5812;48.864;9.190;2022-12-10T15:55:12;16.77;;;16.67;;
11510;SDS011;5812;48.864;9.190;2022-12-10T15:57:40;18.27;;;18.17;;
11510;SDS011;5812;48.864;9.190;2022-12-10T16:00:21;16.93;;;16.83;;
11510;SDS011;5812;48.864;9.190;2022-12-10T16:05:34;17.20;;;17.10;;
11510;SDS011;5812;48.864;9.190;2022-12-10T16:08:06;16.83;;;16.73;;
11510;SDS011;5812;48.864;9.190;2022-12-10T16:10:37;18.17;;;18.07;;
11510;SDS011;5812;48.864;9.190;2022-12-10T16:13:04;18.20;;;18.10;;
11510;SDS011;5812;48.864;9.190;2022-12-10T16:15:32;18.00;;;17.90;;
11510;SDS011;5812;48.864;9.190;2022-12-10T16:18:02;17.60;;;17.50;;
11510;SDS011;5812;48.864;9.190;2022-12-10T16:20:29;16.43;;;16.33;;
11510;SDS011;5812;48.864;9.190;2022-12-10T16:22:56;16.97;;;16.87;;
11510;SDS011;5812;48.864;9.190;2022-12-10T16:25:24;18.03;;;17.93;;
11510;SDS011;5812;48.864;9.190;2022-12-10T16:27:52;18.00;;;17.90;;
11510;SDS011;5812;48.864;9.190;2022-12-10T16:32:53;19.63;;;19.53;;
11510;SDS011;5812;48.864;9.190;2022-12-10T16:35:20;19.07;;;18.97;;
11510;SDS011;5812;48.864;9.190;2022-12-10T16:37:46;18.33;;;18.23;;
11510;SDS011;5812;48.864;9.190;2022-12-10T16:40:15;18.13;;;18.03;;
11510;SDS011;5812;48.864;9.190;2022-12-10T16:42:41;16.83;;;16.73;;
11510;SDS011;5812;48.864;9.190;2022-12-10T16:45:30;17.80;;;17.70;;
11510;SDS011;5812;48.864;9.190;2022-12-10T16:48:00;18.70;;;18.60;;
11510;SDS011;5812;48.864;9.190;2022-12-10T16:50:27;17.93;;;17.83;;
11510;SDS011;5812;48.864;9.190;2022-12-10T16:52:53;18.37;;;18.27;;
11510;SDS011;5812;48.864;9.190;2022-12-10T16:55:21;16.47;;;16.37;;
11510;SDS011;5812;48.864;9.190;2022-12-10T16:57:49;17.77;;;17.67;;
11510;SDS011;5812;48.864;9.190;2022-12-10T17:00:17;17.87;;;17.77;;
11510;SDS011;5812;48.864;9.190;2022-12-10T17:02:45;16.20;;;16.10;;
11510;SDS011;5812;48.864;9.190;2022-12-10T17:05:12;17.50;;;17.40;;
11510;SDS011;5812;48.864;9.190;2022-12-10T17:08:02;18.47;;;18.37;;
11510;SDS011;5812;48.864;9.190;2022-12-10T17:10:28;17.80;;;17.70;;
11510;SDS011;5812;48.864;9.190;2022-12-10T17:13:13;17.77;;;17.67;;
11510;SDS011;5812;48.864;9.190;2022-12-10T17:15:40;18.80;;;18.70;;
11510;SDS011;5812;48.864;9.190;2022-12-10T17:18:11;17.67;;;17.57;;
11510;SDS011;5812;48.864;9.190;2022-12-10T17:20:39;16.87;;;16.77;;
11510;SDS011;5812;48.864;9.190;2022-12-10T17:23:05;18.67;;;18.57;;